sensor_id;sensor_type;location;lat;lon;timestamp;P1;durP1;ratioP1;P2;durP2;ratioP2
45764;SDS011;31474;45.332;10.230;2023-02-10T00:01:13;24.95;;;11.40;;
45764;SDS011;31474;45.332;10.230;2023-02-10T00:03:44;23.10;;;12.15;;
45764;SDS011;31474;45.332;10.230;2023-02-10T00:06:10;24.13;;;12.63;;
45764;SDS011;31474;45.332;10.230;2023-02-10T00:08:37;24.27;;;11.93;;
45764;SDS011;31474;45.332;10.230;2023-02-10T00:11:05;28.88;;;12.82;;
45764;SDS011;31474;45.332;10.230;2023-02-10T00:13:36;27.95;;;11.35;;
45764;SDS011;31474;45.332;10.230;2023-02-10T00:16:03;28.10;;;12.77;;
45764;SDS011;31474;45.332;10.230;2023-02-10T00:18:30;21.17;;;11.82;;
45764;SDS011;31474;45.332;10.230;2023-02-10T00:20:56;25.05;;;12.43;;
45764;SDS011;31474;45.332;10.230;2023-02-10T00:23:29;23.67;;;10.93;;
45764;SDS011;31474;45.332;10.230;2023-02-10T00:25:55;23.58;;;11.27;;
45764;SDS011;31474;45.332;10.230;2023-02-10T00:28:20;24.58;;;12.23;;
45764;SDS011;31474;45.332;10.230;2023-02-10T00:30:46;28.13;;;12.90;;
45764;SDS011;31474;45.332;10.230;2023-02-10T00:33:12;21.58;;;10.82;;
45764;SDS011;31474;45.332;10.230;2023-02-10T00:35:37;26.67;;;12.00;;
45764;SDS011;31474;45.332;10.230;2023-02-10T00:38:03;26.02;;;12.73;;
45764;SDS011;31474;45.332;10.230;2023-02-10T00:40:28;22.35;;;12.48;;
45764;SDS011;31474;45.332;10.230;2023-02-10T00:42:54;31.08;;;13.13;;
45764;SDS011;31474;45.332;10.230;2023-02-10T00:45:20;28.05;;;13.57;;
45764;SDS011;31474;45.332;10.230;2023-02-10T00:47:45;33.60;;;13.48;;
45764;SDS011;31474;45.332;10.230;2023-02-10T00:50:11;27.73;;;13.23;;
45764;SDS011;31474;45.332;10.230;2023-02-10T00:52:37;24.58;;;13.27;;
45764;SDS011;31474;45.332;10.230;2023-02-10T00:55:03;27.40;;;13.75;;
45764;SDS011;31474;45.332;10.230;2023-02-10T00:57:29;24.08;;;12.77;;
45764;SDS011;31474;45.332;10.230;2023-02-10T00:59:55;20.33;;;12.35;;
45764;SDS011;31474;45.332;10.230;2023-02-10T01:02:20;31.27;;;14.27;;
45764;SDS011;31474;45.332;10.230;2023-02-10T01:04:46;22.48;;;12.65;;
45764;SDS011;31474;45.332;10.230;2023-02-10T01:07:12;25.35;;;13.52;;
45764;SDS011;31474;45.332;10.230;2023-02-10T01:09:37;32.50;;;13.57;;
45764;SDS011;31474;45.332;10.230;2023-02-10T01:12:04;29.95;;;13.68;;
45764;SDS011;31474;45.332;10.230;2023-02-10T01:14:30;29.75;;;14.48;;
45764;SDS011;31474;45.332;10.230;2023-02-10T01:16:56;24.55;;;12.82;;
45764;SDS011;31474;45.332;10.230;2023-02-10T01:19:21;29.27;;;14.50;;
45764;SDS011;31474;45.332;10.230;2023-02-10T01:21:47;23.00;;;12.60;;
45764;SDS011;31474;45.332;10.230;2023-02-10T01:24:13;28.10;;;12.93;;
45764;SDS011;31474;45.332;10.230;2023-02-10T01:26:38;28.88;;;13.05;;
45764;SDS011;31474;45.332;10.230;2023-02-10T01:29:04;23.52;;;12.35;;
45764;SDS011;31474;45.332;10.230;2023-02-10T01:31:30;29.25;;;13.93;;
45764;SDS011;31474;45.332;10.230;2023-02-10T01:33:55;28.95;;;14.32;;
45764;SDS011;31474;45.332;10.230;2023-02-10T01:36:22;30.73;;;14.80;;
45764;SDS011;31474;45.332;10.230;2023-02-10T01:38:49;31.92;;;14.48;;
45764;SDS011;31474;45.332;10.230;2023-02-10T01:41:15;28.27;;;13.65;;
45764;SDS011;31474;45.332;10.230;2023-02-10T01:43:56;32.53;;;14.75;;
45764;SDS011;31474;45.332;10.230;2023-02-10T01:46:22;26.45;;;12.65;;
45764;SDS011;31474;45.332;10.230;2023-02-10T01:48:48;27.63;;;13.93;;
45764;SDS011;31474;45.332;10.230;2023-02-10T01:51:15;26.73;;;12.63;;
45764;SDS011;31474;45.332;10.230;2023-02-10T01:53:44;27.85;;;12.68;;
45764;SDS011;31474;45.332;10.230;2023-02-10T01:56:10;27.30;;;11.80;;
45764;SDS011;31474;45.332;10.230;2023-02-10T01:58:39;23.25;;;11.25;;
45764;SDS011;31474;45.332;10.230;2023-02-10T02:01:06;24.80;;;12.43;;
45764;SDS011;31474;45.332;10.230;2023-02-10T02:03:32;26.17;;;13.18;;
45764;SDS011;31474;45.332;10.230;2023-02-10T02:05:58;28.88;;;13.02;;
45764;SDS011;31474;45.332;10.230;2023-02-10T02:08:25;22.17;;;11.80;;
45764;SDS011;31474;45.332;10.230;2023-02-10T02:16:27;22.55;;;10.98;;
45764;SDS011;31474;45.332;10.230;2023-02-10T02:19:40;28.13;;;11.95;;
45764;SDS011;31474;45.332;10.230;2023-02-10T02:22:19;30.52;;;12.45;;
45764;SDS011;31474;45.332;10.230;2023-02-10T02:36:01;21.17;;;10.52;;
45764;SDS011;31474;45.332;10.230;2023-02-10T02:38:37;26.50;;;10.85;;
45764;SDS011;31474;45.332;10.230;2023-02-10T02:41:04;23.00;;;9.73;;
45764;SDS011;31474;45.332;10.230;2023-02-10T02:43:30;23.05;;;10.68;;
45764;SDS011;31474;45.332;10.230;2023-02-10T02:45:58;22.27;;;11.05;;
45764;SDS011;31474;45.332;10.230;2023-02-10T02:54:10;30.33;;;10.98;;
45764;SDS011;31474;45.332;10.230;2023-02-10T02:59:32;26.65;;;10.55;;
45764;SDS011;31474;45.332;10.230;2023-02-10T03:02:06;23.63;;;11.27;;
45764;SDS011;31474;45.332;10.230;2023-02-10T03:04:36;25.58;;;12.07;;
45764;SDS011;31474;45.332;10.230;2023-02-10T03:07:02;22.27;;;10.93;;
45764;SDS011;31474;45.332;10.230;2023-02-10T03:09:28;21.95;;;10.75;;
45764;SDS011;31474;45.332;10.230;2023-02-10T03:11:54;20.90;;;9.85;;
45764;SDS011;31474;45.332;10.230;2023-02-10T03:14:20;18.58;;;9.80;;
45764;SDS011;31474;45.332;10.230;2023-02-10T03:16:46;22.55;;;10.05;;
45764;SDS011;31474;45.332;10.230;2023-02-10T03:19:12;24.30;;;11.23;;
45764;SDS011;31474;45.332;10.230;2023-02-10T03:21:38;24.92;;;10.93;;
45764;SDS011;31474;45.332;10.230;2023-02-10T03:24:04;24.27;;;11.30;;
45764;SDS011;31474;45.332;10.230;2023-02-10T03:26:30;27.60;;;10.90;;
45764;SDS011;31474;45.332;10.230;2023-02-10T03:28:56;24.25;;;11.45;;
45764;SDS011;31474;45.332;10.230;2023-02-10T03:31:21;20.45;;;10.40;;
45764;SDS011;31474;45.332;10.230;2023-02-10T03:33:47;20.70;;;10.75;;
45764;SDS011;31474;45.332;10.230;2023-02-10T03:36:13;25.17;;;11.40;;
45764;SDS011;31474;45.332;10.230;2023-02-10T03:38:38;22.95;;;10.52;;
45764;SDS011;31474;45.332;10.230;2023-02-10T03:41:04;25.65;;;11.00;;
45764;SDS011;31474;45.332;10.230;2023-02-10T03:43:30;22.13;;;11.73;;
45764;SDS011;31474;45.332;10.230;2023-02-10T03:45:58;27.85;;;12.57;;
45764;SDS011;31474;45.332;10.230;2023-02-10T03:48:28;26.60;;;11.35;;
45764;SDS011;31474;45.332;10.230;2023-02-10T03:50:57;21.23;;;11.13;;
45764;SDS011;31474;45.332;10.230;2023-02-10T03:53:23;25.05;;;10.70;;
45764;SDS011;31474;45.332;10.230;2023-02-10T03:55:49;24.63;;;11.30;;
45764;SDS011;31474;45.332;10.230;2023-02-10T03:58:15;27.27;;;12.20;;
45764;SDS011;31474;45.332;10.230;2023-02-10T04:00:40;27.38;;;11.48;;
45764;SDS011;31474;45.332;10.230;2023-02-10T04:03:06;25.20;;;11.25;;
45764;SDS011;31474;45.332;10.230;2023-02-10T04:05:32;24.00;;;10.80;;
45764;SDS011;31474;45.332;10.230;2023-02-10T04:07:58;22.60;;;11.52;;
45764;SDS011;31474;45.332;10.230;2023-02-10T04:10:23;26.08;;;11.95;;
45764;SDS011;31474;45.332;10.230;2023-02-10T04:12:49;23.48;;;10.52;;
45764;SDS011;31474;45.332;10.230;2023-02-10T04:15:15;28.08;;;11.80;;
45764;SDS011;31474;45.332;10.230;2023-02-10T04:17:41;21.30;;;9.75;;
45764;SDS011;31474;45.332;10.230;2023-02-10T04:20:06;23.95;;;10.82;;
45764;SDS011;31474;45.332;10.230;2023-02-10T04:22:32;24.50;;;10.30;;
45764;SDS011;31474;45.332;10.230;2023-02-10T04:24:58;22.60;;;11.43;;
45764;SDS011;31474;45.332;10.230;2023-02-10T04:27:23;26.05;;;10.60;;
45764;SDS011;31474;45.332;10.230;2023-02-10T04:29:49;23.50;;;11.60;;
45764;SDS011;31474;45.332;10.230;2023-02-10T04:32:15;22.48;;;10.85;;
45764;SDS011;31474;45.332;10.230;2023-02-10T04:34:40;18.42;;;10.10;;
45764;SDS011;31474;45.332;10.230;2023-02-10T04:37:06;24.63;;;11.48;;
45764;SDS011;31474;45.332;10.230;2023-02-10T04:39:32;20.73;;;10.93;;
45764;SDS011;31474;45.332;10.230;2023-02-10T04:41:57;28.50;;;12.18;;
45764;SDS011;31474;45.332;10.230;2023-02-10T04:44:23;21.42;;;12.45;;
45764;SDS011;31474;45.332;10.230;2023-02-10T04:46:49;21.20;;;11.13;;
45764;SDS011;31474;45.332;10.230;2023-02-10T04:49:15;21.48;;;11.25;;
45764;SDS011;31474;45.332;10.230;2023-02-10T04:51:41;23.67;;;12.40;;
45764;SDS011;31474;45.332;10.230;2023-02-10T04:54:07;25.70;;;11.40;;
45764;SDS011;31474;45.332;10.230;2023-02-10T04:56:33;24.98;;;12.05;;
45764;SDS011;31474;45.332;10.230;2023-02-10T04:58:59;31.63;;;12.88;;
45764;SDS011;31474;45.332;10.230;2023-02-10T05:01:24;27.60;;;12.65;;
45764;SDS011;31474;45.332;10.230;2023-02-10T05:03:50;26.63;;;12.40;;
45764;SDS011;31474;45.332;10.230;2023-02-10T05:06:16;29.42;;;12.85;;
45764;SDS011;31474;45.332;10.230;2023-02-10T05:08:42;24.05;;;10.90;;
45764;SDS011;31474;45.332;10.230;2023-02-10T05:11:08;23.65;;;12.05;;
45764;SDS011;31474;45.332;10.230;2023-02-10T05:13:37;23.77;;;11.32;;
45764;SDS011;31474;45.332;10.230;2023-02-10T05:16:04;26.42;;;12.85;;
45764;SDS011;31474;45.332;10.230;2023-02-10T05:18:31;25.50;;;11.35;;
45764;SDS011;31474;45.332;10.230;2023-02-10T05:20:58;25.70;;;11.93;;
45764;SDS011;31474;45.332;10.230;2023-02-10T05:23:24;23.08;;;12.02;;
45764;SDS011;31474;45.332;10.230;2023-02-10T05:25:50;27.25;;;11.65;;
45764;SDS011;31474;45.332;10.230;2023-02-10T05:28:17;27.10;;;12.00;;
45764;SDS011;31474;45.332;10.230;2023-02-10T05:30:42;31.20;;;13.23;;
45764;SDS011;31474;45.332;10.230;2023-02-10T05:33:08;28.75;;;12.18;;
45764;SDS011;31474;45.332;10.230;2023-02-10T05:35:33;33.05;;;13.30;;
45764;SDS011;31474;45.332;10.230;2023-02-10T05:37:59;24.55;;;12.75;;
45764;SDS011;31474;45.332;10.230;2023-02-10T05:40:26;31.58;;;13.32;;
45764;SDS011;31474;45.332;10.230;2023-02-10T05:42:55;19.73;;;10.80;;
45764;SDS011;31474;45.332;10.230;2023-02-10T05:45:21;26.60;;;14.20;;
45764;SDS011;31474;45.332;10.230;2023-02-10T05:47:47;21.83;;;11.40;;
45764;SDS011;31474;45.332;10.230;2023-02-10T05:50:13;29.75;;;12.77;;
45764;SDS011;31474;45.332;10.230;2023-02-10T05:52:39;24.20;;;11.65;;
45764;SDS011;31474;45.332;10.230;2023-02-10T05:55:05;31.20;;;15.20;;
45764;SDS011;31474;45.332;10.230;2023-02-10T05:57:31;26.65;;;14.00;;
45764;SDS011;31474;45.332;10.230;2023-02-10T05:59:56;29.80;;;12.65;;
45764;SDS011;31474;45.332;10.230;2023-02-10T06:02:22;26.10;;;12.50;;
45764;SDS011;31474;45.332;10.230;2023-02-10T06:04:48;24.02;;;12.80;;
45764;SDS011;31474;45.332;10.230;2023-02-10T06:07:14;51.28;;;21.52;;
45764;SDS011;31474;45.332;10.230;2023-02-10T06:09:41;43.35;;;20.73;;
45764;SDS011;31474;45.332;10.230;2023-02-10T06:12:07;32.88;;;14.27;;
45764;SDS011;31474;45.332;10.230;2023-02-10T06:14:33;30.60;;;15.13;;
45764;SDS011;31474;45.332;10.230;2023-02-10T06:16:58;29.13;;;13.45;;
45764;SDS011;31474;45.332;10.230;2023-02-10T06:19:24;27.50;;;11.25;;
45764;SDS011;31474;45.332;10.230;2023-02-10T06:21:50;20.90;;;11.68;;
45764;SDS011;31474;45.332;10.230;2023-02-10T06:24:15;21.75;;;11.20;;
45764;SDS011;31474;45.332;10.230;2023-02-10T06:26:41;27.88;;;13.90;;
45764;SDS011;31474;45.332;10.230;2023-02-10T06:29:07;28.20;;;12.55;;
45764;SDS011;31474;45.332;10.230;2023-02-10T06:31:32;27.48;;;14.63;;
45764;SDS011;31474;45.332;10.230;2023-02-10T06:33:58;28.27;;;14.73;;
45764;SDS011;31474;45.332;10.230;2023-02-10T06:36:24;29.10;;;12.13;;
45764;SDS011;31474;45.332;10.230;2023-02-10T06:38:49;29.27;;;12.40;;
45764;SDS011;31474;45.332;10.230;2023-02-10T06:41:15;28.15;;;12.48;;
45764;SDS011;31474;45.332;10.230;2023-02-10T06:43:41;26.88;;;13.60;;
45764;SDS011;31474;45.332;10.230;2023-02-10T06:46:07;26.45;;;12.98;;
45764;SDS011;31474;45.332;10.230;2023-02-10T06:48:32;32.97;;;13.82;;
45764;SDS011;31474;45.332;10.230;2023-02-10T06:50:58;32.90;;;13.45;;
45764;SDS011;31474;45.332;10.230;2023-02-10T06:53:24;26.65;;;13.07;;
45764;SDS011;31474;45.332;10.230;2023-02-10T06:55:49;32.45;;;14.48;;
45764;SDS011;31474;45.332;10.230;2023-02-10T06:58:15;31.80;;;14.57;;
45764;SDS011;31474;45.332;10.230;2023-02-10T07:00:41;29.40;;;14.73;;
45764;SDS011;31474;45.332;10.230;2023-02-10T07:03:07;34.10;;;14.23;;
45764;SDS011;31474;45.332;10.230;2023-02-10T07:05:33;27.15;;;13.65;;
45764;SDS011;31474;45.332;10.230;2023-02-10T07:08:00;33.53;;;16.23;;
45764;SDS011;31474;45.332;10.230;2023-02-10T07:10:29;34.80;;;15.00;;
45764;SDS011;31474;45.332;10.230;2023-02-10T07:12:55;31.40;;;13.40;;
45764;SDS011;31474;45.332;10.230;2023-02-10T07:15:21;32.10;;;15.55;;
45764;SDS011;31474;45.332;10.230;2023-02-10T07:17:48;28.02;;;14.93;;
45764;SDS011;31474;45.332;10.230;2023-02-10T07:20:15;39.72;;;15.95;;
45764;SDS011;31474;45.332;10.230;2023-02-10T07:22:42;36.95;;;17.27;;
45764;SDS011;31474;45.332;10.230;2023-02-10T07:25:08;39.47;;;17.10;;
45764;SDS011;31474;45.332;10.230;2023-02-10T07:27:33;30.98;;;17.40;;
45764;SDS011;31474;45.332;10.230;2023-02-10T07:29:59;34.67;;;18.40;;
45764;SDS011;31474;45.332;10.230;2023-02-10T07:32:25;31.85;;;15.95;;
45764;SDS011;31474;45.332;10.230;2023-02-10T07:34:50;38.78;;;20.83;;
45764;SDS011;31474;45.332;10.230;2023-02-10T07:37:16;44.90;;;21.52;;
45764;SDS011;31474;45.332;10.230;2023-02-10T07:39:42;61.95;;;30.40;;
45764;SDS011;31474;45.332;10.230;2023-02-10T07:42:07;53.03;;;28.90;;
45764;SDS011;31474;45.332;10.230;2023-02-10T07:44:33;48.97;;;20.25;;
45764;SDS011;31474;45.332;10.230;2023-02-10T07:46:58;45.72;;;24.27;;
45764;SDS011;31474;45.332;10.230;2023-02-10T07:49:24;42.67;;;22.30;;
45764;SDS011;31474;45.332;10.230;2023-02-10T07:51:51;51.70;;;24.13;;
45764;SDS011;31474;45.332;10.230;2023-02-10T07:54:17;39.22;;;21.95;;
45764;SDS011;31474;45.332;10.230;2023-02-10T07:56:43;40.88;;;21.10;;
45764;SDS011;31474;45.332;10.230;2023-02-10T07:59:08;44.42;;;24.50;;
45764;SDS011;31474;45.332;10.230;2023-02-10T08:01:34;43.72;;;22.90;;
45764;SDS011;31474;45.332;10.230;2023-02-10T08:04:05;49.17;;;23.73;;
45764;SDS011;31474;45.332;10.230;2023-02-10T08:06:31;43.33;;;21.67;;
45764;SDS011;31474;45.332;10.230;2023-02-10T08:08:57;45.63;;;22.77;;
45764;SDS011;31474;45.332;10.230;2023-02-10T08:11:22;43.50;;;21.50;;
45764;SDS011;31474;45.332;10.230;2023-02-10T08:13:48;40.80;;;19.02;;
45764;SDS011;31474;45.332;10.230;2023-02-10T08:16:14;48.38;;;22.42;;
45764;SDS011;31474;45.332;10.230;2023-02-10T08:18:40;47.40;;;25.15;;
45764;SDS011;31474;45.332;10.230;2023-02-10T08:21:06;46.03;;;21.65;;
45764;SDS011;31474;45.332;10.230;2023-02-10T08:23:33;50.70;;;21.98;;
45764;SDS011;31474;45.332;10.230;2023-02-10T08:26:06;56.28;;;23.85;;
45764;SDS011;31474;45.332;10.230;2023-02-10T08:28:34;55.13;;;20.75;;
45764;SDS011;31474;45.332;10.230;2023-02-10T08:31:01;43.97;;;22.25;;
45764;SDS011;31474;45.332;10.230;2023-02-10T08:33:28;45.33;;;22.52;;
45764;SDS011;31474;45.332;10.230;2023-02-10T08:35:55;42.72;;;20.67;;
45764;SDS011;31474;45.332;10.230;2023-02-10T08:38:21;42.67;;;21.50;;
45764;SDS011;31474;45.332;10.230;2023-02-10T08:40:53;41.25;;;20.42;;
45764;SDS011;31474;45.332;10.230;2023-02-10T08:43:22;46.17;;;20.50;;
45764;SDS011;31474;45.332;10.230;2023-02-10T08:45:48;41.30;;;22.10;;
45764;SDS011;31474;45.332;10.230;2023-02-10T08:48:14;38.50;;;20.27;;
45764;SDS011;31474;45.332;10.230;2023-02-10T08:50:40;46.35;;;21.52;;
45764;SDS011;31474;45.332;10.230;2023-02-10T08:53:05;49.03;;;26.00;;
45764;SDS011;31474;45.332;10.230;2023-02-10T08:55:31;50.33;;;23.67;;
45764;SDS011;31474;45.332;10.230;2023-02-10T08:57:57;47.08;;;21.20;;
45764;SDS011;31474;45.332;10.230;2023-02-10T09:00:22;46.15;;;22.50;;
45764;SDS011;31474;45.332;10.230;2023-02-10T09:02:48;50.92;;;24.77;;
45764;SDS011;31474;45.332;10.230;2023-02-10T09:05:15;46.42;;;23.45;;
45764;SDS011;31474;45.332;10.230;2023-02-10T09:07:41;43.10;;;21.67;;
45764;SDS011;31474;45.332;10.230;2023-02-10T09:10:08;39.58;;;19.35;;
45764;SDS011;31474;45.332;10.230;2023-02-10T09:12:35;43.63;;;21.88;;
45764;SDS011;31474;45.332;10.230;2023-02-10T09:15:02;38.13;;;20.67;;
45764;SDS011;31474;45.332;10.230;2023-02-10T09:17:27;40.08;;;20.15;;
45764;SDS011;31474;45.332;10.230;2023-02-10T09:19:53;45.60;;;22.23;;
45764;SDS011;31474;45.332;10.230;2023-02-10T09:22:19;38.10;;;18.48;;
45764;SDS011;31474;45.332;10.230;2023-02-10T09:24:44;37.47;;;19.10;;
45764;SDS011;31474;45.332;10.230;2023-02-10T09:27:13;41.30;;;19.88;;
45764;SDS011;31474;45.332;10.230;2023-02-10T09:29:40;34.55;;;19.02;;
45764;SDS011;31474;45.332;10.230;2023-02-10T09:32:06;44.50;;;19.15;;
45764;SDS011;31474;45.332;10.230;2023-02-10T09:34:31;44.55;;;20.85;;
45764;SDS011;31474;45.332;10.230;2023-02-10T09:36:57;34.67;;;18.77;;
45764;SDS011;31474;45.332;10.230;2023-02-10T09:39:26;39.05;;;20.38;;
45764;SDS011;31474;45.332;10.230;2023-02-10T09:44:47;35.72;;;19.83;;
45764;SDS011;31474;45.332;10.230;2023-02-10T09:47:29;39.90;;;18.10;;
45764;SDS011;31474;45.332;10.230;2023-02-10T09:50:25;36.97;;;18.33;;
45764;SDS011;31474;45.332;10.230;2023-02-10T09:53:04;37.47;;;19.48;;
45764;SDS011;31474;45.332;10.230;2023-02-10T09:55:39;30.67;;;17.17;;
45764;SDS011;31474;45.332;10.230;2023-02-10T10:06:38;34.35;;;18.35;;
45764;SDS011;31474;45.332;10.230;2023-02-10T10:28:19;26.33;;;16.30;;
45764;SDS011;31474;45.332;10.230;2023-02-10T10:33:35;28.98;;;16.25;;
45764;SDS011;31474;45.332;10.230;2023-02-10T10:36:05;29.23;;;17.25;;
45764;SDS011;31474;45.332;10.230;2023-02-10T10:38:38;26.83;;;15.75;;
45764;SDS011;31474;45.332;10.230;2023-02-10T10:41:11;21.55;;;14.80;;
45764;SDS011;31474;45.332;10.230;2023-02-10T10:43:42;28.13;;;17.42;;
45764;SDS011;31474;45.332;10.230;2023-02-10T10:46:27;25.10;;;13.40;;
45764;SDS011;31474;45.332;10.230;2023-02-10T10:48:55;24.48;;;14.25;;
45764;SDS011;31474;45.332;10.230;2023-02-10T10:51:22;27.05;;;14.45;;
45764;SDS011;31474;45.332;10.230;2023-02-10T10:58:59;28.67;;;14.77;;
45764;SDS011;31474;45.332;10.230;2023-02-10T11:01:30;26.25;;;14.63;;
45764;SDS011;31474;45.332;10.230;2023-02-10T11:06:33;30.63;;;15.07;;
45764;SDS011;31474;45.332;10.230;2023-02-10T11:09:02;23.27;;;15.02;;
45764;SDS011;31474;45.332;10.230;2023-02-10T11:11:51;23.08;;;14.18;;
45764;SDS011;31474;45.332;10.230;2023-02-10T11:16:46;22.27;;;12.98;;
45764;SDS011;31474;45.332;10.230;2023-02-10T11:19:19;21.20;;;12.52;;
45764;SDS011;31474;45.332;10.230;2023-02-10T11:21:53;24.95;;;13.70;;
45764;SDS011;31474;45.332;10.230;2023-02-10T11:24:27;23.63;;;13.60;;
45764;SDS011;31474;45.332;10.230;2023-02-10T11:29:39;31.70;;;15.48;;
45764;SDS011;31474;45.332;10.230;2023-02-10T11:32:20;21.33;;;14.27;;
45764;SDS011;31474;45.332;10.230;2023-02-10T11:34:48;29.30;;;17.13;;
45764;SDS011;31474;45.332;10.230;2023-02-10T11:37:33;29.52;;;15.88;;
45764;SDS011;31474;45.332;10.230;2023-02-10T11:40:25;25.13;;;15.57;;
45764;SDS011;31474;45.332;10.230;2023-02-10T11:42:57;25.42;;;14.07;;
45764;SDS011;31474;45.332;10.230;2023-02-10T11:45:26;29.92;;;17.63;;
45764;SDS011;31474;45.332;10.230;2023-02-10T11:48:04;25.38;;;15.90;;
45764;SDS011;31474;45.332;10.230;2023-02-10T11:50:44;24.45;;;12.82;;
45764;SDS011;31474;45.332;10.230;2023-02-10T11:53:23;22.08;;;14.20;;
45764;SDS011;31474;45.332;10.230;2023-02-10T12:06:51;23.80;;;13.85;;
45764;SDS011;31474;45.332;10.230;2023-02-10T12:15:35;22.85;;;13.00;;
45764;SDS011;31474;45.332;10.230;2023-02-10T12:18:09;20.48;;;13.27;;
45764;SDS011;31474;45.332;10.230;2023-02-10T12:26:18;32.35;;;14.93;;
45764;SDS011;31474;45.332;10.230;2023-02-10T12:56:49;25.35;;;14.00;;
45764;SDS011;31474;45.332;10.230;2023-02-10T12:59:23;26.02;;;13.55;;
45764;SDS011;31474;45.332;10.230;2023-02-10T13:01:59;24.42;;;14.60;;
45764;SDS011;31474;45.332;10.230;2023-02-10T13:04:31;25.38;;;14.52;;
45764;SDS011;31474;45.332;10.230;2023-02-10T13:07:01;27.15;;;15.35;;
45764;SDS011;31474;45.332;10.230;2023-02-10T13:09:54;25.15;;;14.77;;
45764;SDS011;31474;45.332;10.230;2023-02-10T13:12:28;27.75;;;14.05;;
45764;SDS011;31474;45.332;10.230;2023-02-10T13:17:53;21.05;;;12.80;;
45764;SDS011;31474;45.332;10.230;2023-02-10T13:23:04;18.02;;;11.02;;
45764;SDS011;31474;45.332;10.230;2023-02-10T13:34:15;26.35;;;14.05;;
45764;SDS011;31474;45.332;10.230;2023-02-10T13:39:37;22.42;;;14.00;;
45764;SDS011;31474;45.332;10.230;2023-02-10T13:44:42;20.88;;;13.70;;
45764;SDS011;31474;45.332;10.230;2023-02-10T13:49:34;25.00;;;14.15;;
45764;SDS011;31474;45.332;10.230;2023-02-10T13:52:14;21.83;;;13.40;;
45764;SDS011;31474;45.332;10.230;2023-02-10T13:54:51;22.23;;;13.35;;
45764;SDS011;31474;45.332;10.230;2023-02-10T13:57:29;23.05;;;13.82;;
45764;SDS011;31474;45.332;10.230;2023-02-10T14:00:21;30.40;;;19.25;;
45764;SDS011;31474;45.332;10.230;2023-02-10T14:05:36;49.78;;;22.17;;
45764;SDS011;31474;45.332;10.230;2023-02-10T14:13:38;26.52;;;15.88;;
45764;SDS011;31474;45.332;10.230;2023-02-10T14:16:05;28.20;;;16.02;;
45764;SDS011;31474;45.332;10.230;2023-02-10T14:18:42;28.10;;;15.73;;
45764;SDS011;31474;45.332;10.230;2023-02-10T14:21:15;24.88;;;14.38;;
45764;SDS011;31474;45.332;10.230;2023-02-10T14:23:49;24.73;;;14.85;;
45764;SDS011;31474;45.332;10.230;2023-02-10T14:26:22;30.27;;;16.77;;
45764;SDS011;31474;45.332;10.230;2023-02-10T14:28:53;23.52;;;15.02;;
45764;SDS011;31474;45.332;10.230;2023-02-10T14:31:28;25.73;;;15.20;;
45764;SDS011;31474;45.332;10.230;2023-02-10T14:34:01;25.17;;;14.40;;
45764;SDS011;31474;45.332;10.230;2023-02-10T14:36:29;27.85;;;15.55;;
45764;SDS011;31474;45.332;10.230;2023-02-10T14:38:59;26.38;;;15.20;;
45764;SDS011;31474;45.332;10.230;2023-02-10T14:41:26;31.38;;;15.55;;
45764;SDS011;31474;45.332;10.230;2023-02-10T14:43:54;27.60;;;15.57;;
45764;SDS011;31474;45.332;10.230;2023-02-10T14:46:21;21.42;;;13.82;;
45764;SDS011;31474;45.332;10.230;2023-02-10T14:48:51;31.88;;;15.43;;
45764;SDS011;31474;45.332;10.230;2023-02-10T14:51:26;23.77;;;14.35;;
45764;SDS011;31474;45.332;10.230;2023-02-10T14:53:53;28.00;;;14.63;;
45764;SDS011;31474;45.332;10.230;2023-02-10T14:56:23;23.85;;;13.45;;
45764;SDS011;31474;45.332;10.230;2023-02-10T14:58:51;25.92;;;14.00;;
45764;SDS011;31474;45.332;10.230;2023-02-10T15:01:35;24.70;;;14.32;;
45764;SDS011;31474;45.332;10.230;2023-02-10T15:04:01;29.13;;;15.20;;
45764;SDS011;31474;45.332;10.230;2023-02-10T15:06:29;24.02;;;15.02;;
45764;SDS011;31474;45.332;10.230;2023-02-10T15:11:36;24.58;;;14.55;;
45764;SDS011;31474;45.332;10.230;2023-02-10T15:14:34;24.25;;;14.35;;
45764;SDS011;31474;45.332;10.230;2023-02-10T15:17:23;31.05;;;16.13;;
45764;SDS011;31474;45.332;10.230;2023-02-10T15:20:16;28.42;;;14.65;;
45764;SDS011;31474;45.332;10.230;2023-02-10T15:27:59;24.23;;;13.30;;
45764;SDS011;31474;45.332;10.230;2023-02-10T15:33:10;23.38;;;13.00;;
45764;SDS011;31474;45.332;10.230;2023-02-10T15:38:19;30.15;;;14.20;;
45764;SDS011;31474;45.332;10.230;2023-02-10T15:40:54;25.13;;;13.50;;
45764;SDS011;31474;45.332;10.230;2023-02-10T15:43:22;27.27;;;14.45;;
45764;SDS011;31474;45.332;10.230;2023-02-10T15:46:03;24.52;;;13.98;;
45764;SDS011;31474;45.332;10.230;2023-02-10T15:48:40;26.70;;;12.63;;
45764;SDS011;31474;45.332;10.230;2023-02-10T15:51:05;24.90;;;13.52;;
45764;SDS011;31474;45.332;10.230;2023-02-10T15:53:44;22.75;;;13.82;;
45764;SDS011;31474;45.332;10.230;2023-02-10T15:56:10;27.02;;;13.40;;
45764;SDS011;31474;45.332;10.230;2023-02-10T15:58:35;25.85;;;14.25;;
45764;SDS011;31474;45.332;10.230;2023-02-10T16:01:01;22.98;;;13.32;;
45764;SDS011;31474;45.332;10.230;2023-02-10T16:03:26;26.05;;;15.15;;
45764;SDS011;31474;45.332;10.230;2023-02-10T16:05:52;21.05;;;14.68;;
45764;SDS011;31474;45.332;10.230;2023-02-10T16:08:24;27.23;;;16.10;;
45764;SDS011;31474;45.332;10.230;2023-02-10T16:10:50;31.33;;;15.57;;
45764;SDS011;31474;45.332;10.230;2023-02-10T16:13:16;27.85;;;15.48;;
45764;SDS011;31474;45.332;10.230;2023-02-10T16:15:45;23.23;;;14.68;;
45764;SDS011;31474;45.332;10.230;2023-02-10T16:18:14;26.33;;;15.30;;
45764;SDS011;31474;45.332;10.230;2023-02-10T16:20:44;30.35;;;15.13;;
45764;SDS011;31474;45.332;10.230;2023-02-10T16:23:11;29.80;;;15.30;;
45764;SDS011;31474;45.332;10.230;2023-02-10T16:25:38;25.48;;;14.52;;
45764;SDS011;31474;45.332;10.230;2023-02-10T16:28:04;27.88;;;15.90;;
45764;SDS011;31474;45.332;10.230;2023-02-10T16:30:30;32.55;;;15.98;;
45764;SDS011;31474;45.332;10.230;2023-02-10T16:32:58;25.65;;;13.13;;
45764;SDS011;31474;45.332;10.230;2023-02-10T16:35:24;28.90;;;15.80;;
45764;SDS011;31474;45.332;10.230;2023-02-10T16:37:51;26.15;;;15.50;;
45764;SDS011;31474;45.332;10.230;2023-02-10T16:42:54;37.20;;;17.80;;
45764;SDS011;31474;45.332;10.230;2023-02-10T16:45:21;23.48;;;13.65;;
45764;SDS011;31474;45.332;10.230;2023-02-10T16:47:48;32.45;;;15.10;;
45764;SDS011;31474;45.332;10.230;2023-02-10T16:52:57;25.20;;;13.43;;
45764;SDS011;31474;45.332;10.230;2023-02-10T16:55:24;27.40;;;13.15;;
45764;SDS011;31474;45.332;10.230;2023-02-10T16:57:51;24.10;;;13.10;;
45764;SDS011;31474;45.332;10.230;2023-02-10T17:00:18;27.42;;;13.82;;
45764;SDS011;31474;45.332;10.230;2023-02-10T17:02:45;28.20;;;14.25;;
45764;SDS011;31474;45.332;10.230;2023-02-10T17:05:10;33.97;;;15.52;;
45764;SDS011;31474;45.332;10.230;2023-02-10T17:07:36;41.10;;;18.70;;